Grand Detour, Illinois
Current Conditions -  °F | °C
As of 3:35 AM on Friday 19 Dec 2014 (Local Time) from KSQI Reporting Station
Overcast Overcast  
Wind Chill: 15°   Ceiling: 2000
Heat Index: 25°   Visibility: 10mi
Dew Point: 18°   Wind: 9mph
Humidity: 74%   Direction: 300°WNW
Pressure: 30.3"   Gusts: NA
Location:  41.8109°N, 89.4546°W
Report Text: KSQI 190935Z 30008KT 10SM OVC020 M04/M08 A3030 RMK AO1
Loading
Personal Weather Stations






























Interactive Weather Map New forecast layout! Learn more

10-Day Weather Forecast

Advertisements
Track Severe Weather on mobile